Bradford, IA (50041)

9:23 AM CDT on July 14, 2014 (GMT -0500)
Jensen Farm (KIAIOWAF2) Elev 1129 ft | 42.50 °N, 93.20 °W | Change Station

Current weather conditions updated 9 seconds ago

Clear
Clear
66.9 °F
Feels Like 66.9 °F
N
7.0
Wind Variable Wind from WNW
Gusts 13.0 mph

Today is forecast to be Much Cooler than yesterday.

Today
High -- | Low -- °F
--% Chance of Precip.
Yesterday
High -- | Low -- °F
Precip. -- in
5:47 AM 8:49 PM
Waning Gibbous, 93% visible
Pressure 29.97 in
Visibility 10.0 miles
Clouds Clear
Dew Point 55 °F
Humidity 66%
Rainfall 0.00 in
Snow Depth Not available.
UV 4 out of 12
Pollen 3.70 out of 12
Air Quality Not available.
Flu Activity Sporadic
METAR KIFA 141415Z AUTO 33012KT 10SM CLR 19/12 A2997 RMK AO2 T01870123

More Conditions Fewer Conditions

Pressure 29.97 in
Visibility 10.0 miles
Clouds Clear
Dew Point 55 °F
Humidity 66%
Rainfall 0.00 in
Snow Depth Not available.
UV 4 out of 12
Pollen 3.70 out of 12
Air Quality Not available.
Flu Activity Sporadic
METAR KIFA 141415Z AUTO 33012KT 10SM CLR 19/12 A2997 RMK AO2 T01870123

More Conditions Fewer Conditions

10-Day Weather Forecast

Almanac

Astronomy

Jul. 14, 2014 Rise Set
Actual Time 5:47 AM CDT 8:49 PM CDT
Civil Twilight 5:13 AM CDT 9:22 PM CDT
Nautical Twilight 4:30 AM CDT 10:06 PM CDT
Astronomical Twilight 3:39 AM CDT 10:56 PM CDT
Moon 10:13 PM CDT 8:35 AM CDT
Length of Visible Light 16h 09m
Length of Day
15h 01m
Tomorrow will be 1m 28s shorter.
Waning Gibbous, 93% of the Moon is Illuminated
Today
Waning Gibbous
Jul 18
Last Quarter
Jul 26
New
Aug 3
First Quarter
Aug 10
Full

Today's Extremes

State Highs State Lows

Community

WunderPhotos

Upload Photos

1,733,667 photos uploaded!

Nearby

Snow Depth

Station Depth Elevation
No new snow has been reported.

Earthquake Activity

City Distance Mag. Time & Date
No recent earthquake activity has been reported nearby.
Minimum magnitude displayed is 2.5.

Coastal Water Temperatures

Place Temperature
No Stations Reporting

Nearby Weather Stations

Station Location Temp. Dew Point Humidity Wind Precip. Elev Updated Type
MesoWest ARGON , Bradford, IA 55 °F - - North  at  - 0.00 in / hr 1198 ft 6:05 AM CDT MADIS
Jensen Farm, Iowa Falls, IA 66.9 °F 55 °F 66% WNW  at  7.0 mph 0.00 in / hr 1129 ft 9:23 AM CDT Rapid Fire
Beeds Addition, Hampton, IA 66.2 °F 56 °F 71% NW  at  11.4 mph 0.00 in / hr 1145 ft 9:23 AM CDT Rapid Fire
MesoWest SHEFFI , Chapin, IA 64 °F - - North  at  - 0.00 in / hr 1154 ft 5:35 AM CDT MADIS

Show More Stations Show Fewer Stations